메인 페이지
METAR-TAF:

METAR-TAF

공항 :

Palm Springs International Airport

팜스프링스, 캘리포니아, 미국

위도: 33-49-20N, 경도: 116-30-13W, 고도: 140m

현재 날씨관측

예보는 45분 전, 18:53시(UTC)에 발표되었습니다.
여러 방향의 바람 3kt
온도 39°C
습도 8%
기압 1011 hPa
시정: 16.1km
맑음

METAR: KPSP 131853Z VRB03KT 10SM CLR 39/M02 A2984 RMK AO2 SLP100 T03941017 $

시각: 12:38 (19:38 UTC)

예보

예보는 2 시간 14분 전, 17:24시(UTC)에 발표되었습니다.
예보 대상 시간: 13일 18시부터 14일 18시까지 (UTC)
북서5kt
시정: 10km
맑음
13일 2000시부터 (UTC)
북서15kt, 순간 최대 풍속 25kt
시정: 10km
맑음
14일 0600시부터 (UTC)
북서11kt
시정: 10km
맑음
14일 0800시부터 (UTC)
여러 방향의 바람 4kt
시정: 10km
맑음

TAF: KPSP 131724Z 1318/1418 32005KT P6SM SKC FM132000 32015G25KT P6SM SKC FM140600 32011KT P6SM SKC FM140800 VRB04KT P6SM SKC

4,000개 이상의 공항 관측 자료 및 예보 (METAR 및 TAF 보고).

지도상에서 검색 가능한 기상관측소가 노란 점과 빨간 점으로 표시되어 있습니다.

기상관측소 명을 보려면 표시 위로 마우스를 이동하세요.

날씨 관측과 예보를 보려면 클릭하세요.

지도 변경 : 확대하려면 엑스 표시가 있는 녹색 버튼, 축소하려면 빼기 표시가 있는 녹색 버튼, 다음 페이지의 지도를 보려면 녹색 화살표를 클릭하세요.


METAR-TAF: